sensor_id;sensor_type;location;lat;lon;timestamp;P1;durP1;ratioP1;P2;durP2;ratioP2
41323;SDS011;27073;51.128;4.220;2023-05-16T00:00:16;20.42;;;3.00;;
41323;SDS011;27073;51.128;4.220;2023-05-16T00:02:43;16.48;;;2.53;;
41323;SDS011;27073;51.128;4.220;2023-05-16T00:05:09;10.13;;;2.55;;
41323;SDS011;27073;51.128;4.220;2023-05-16T00:07:38;17.90;;;2.63;;
41323;SDS011;27073;51.128;4.220;2023-05-16T00:10:06;13.82;;;2.47;;
41323;SDS011;27073;51.128;4.220;2023-05-16T00:12:32;15.82;;;3.50;;
41323;SDS011;27073;51.128;4.220;2023-05-16T00:14:58;13.38;;;2.30;;
41323;SDS011;27073;51.128;4.220;2023-05-16T00:17:24;21.83;;;3.00;;
41323;SDS011;27073;51.128;4.220;2023-05-16T00:19:53;16.60;;;2.35;;
41323;SDS011;27073;51.128;4.220;2023-05-16T00:22:25;14.93;;;2.60;;
41323;SDS011;27073;51.128;4.220;2023-05-16T00:24:51;17.92;;;2.42;;
41323;SDS011;27073;51.128;4.220;2023-05-16T00:27:17;18.52;;;3.20;;
41323;SDS011;27073;51.128;4.220;2023-05-16T00:29:43;19.33;;;2.38;;
41323;SDS011;27073;51.128;4.220;2023-05-16T00:32:09;12.25;;;2.47;;
41323;SDS011;27073;51.128;4.220;2023-05-16T00:34:35;14.75;;;2.42;;
41323;SDS011;27073;51.128;4.220;2023-05-16T00:37:01;17.25;;;2.33;;
41323;SDS011;27073;51.128;4.220;2023-05-16T00:39:26;12.75;;;2.72;;
41323;SDS011;27073;51.128;4.220;2023-05-16T00:41:55;15.25;;;3.05;;
41323;SDS011;27073;51.128;4.220;2023-05-16T00:44:21;16.80;;;3.22;;
41323;SDS011;27073;51.128;4.220;2023-05-16T00:46:50;14.32;;;2.88;;
41323;SDS011;27073;51.128;4.220;2023-05-16T00:49:16;13.20;;;2.30;;
41323;SDS011;27073;51.128;4.220;2023-05-16T00:51:42;13.02;;;3.35;;
41323;SDS011;27073;51.128;4.220;2023-05-16T00:54:08;14.32;;;2.40;;
41323;SDS011;27073;51.128;4.220;2023-05-16T00:56:35;17.48;;;2.67;;
41323;SDS011;27073;51.128;4.220;2023-05-16T00:59:01;16.50;;;2.30;;
41323;SDS011;27073;51.128;4.220;2023-05-16T01:01:28;20.10;;;3.33;;
41323;SDS011;27073;51.128;4.220;2023-05-16T01:03:53;17.77;;;3.42;;
41323;SDS011;27073;51.128;4.220;2023-05-16T01:06:19;19.73;;;2.65;;
41323;SDS011;27073;51.128;4.220;2023-05-16T01:08:45;18.75;;;2.95;;
41323;SDS011;27073;51.128;4.220;2023-05-16T01:11:13;17.67;;;2.38;;
41323;SDS011;27073;51.128;4.220;2023-05-16T01:14:07;20.67;;;3.08;;
41323;SDS011;27073;51.128;4.220;2023-05-16T01:27:56;16.38;;;2.90;;
41323;SDS011;27073;51.128;4.220;2023-05-16T01:30:22;16.05;;;2.75;;
41323;SDS011;27073;51.128;4.220;2023-05-16T01:32:47;17.50;;;3.55;;
41323;SDS011;27073;51.128;4.220;2023-05-16T01:35:14;19.45;;;2.83;;
41323;SDS011;27073;51.128;4.220;2023-05-16T01:37:43;17.58;;;4.07;;
41323;SDS011;27073;51.128;4.220;2023-05-16T01:40:15;14.40;;;2.15;;
41323;SDS011;27073;51.128;4.220;2023-05-16T01:42:49;14.43;;;3.35;;
41323;SDS011;27073;51.128;4.220;2023-05-16T01:45:23;15.60;;;3.20;;
41323;SDS011;27073;51.128;4.220;2023-05-16T01:50:42;15.90;;;2.92;;
41323;SDS011;27073;51.128;4.220;2023-05-16T01:53:13;17.77;;;3.65;;
41323;SDS011;27073;51.128;4.220;2023-05-16T01:55:53;19.42;;;2.97;;
41323;SDS011;27073;51.128;4.220;2023-05-16T01:58:22;18.98;;;3.15;;
41323;SDS011;27073;51.128;4.220;2023-05-16T02:00:52;20.10;;;2.67;;
41323;SDS011;27073;51.128;4.220;2023-05-16T02:03:18;15.45;;;2.47;;
41323;SDS011;27073;51.128;4.220;2023-05-16T02:05:45;11.15;;;2.92;;
41323;SDS011;27073;51.128;4.220;2023-05-16T02:08:12;18.95;;;3.22;;
41323;SDS011;27073;51.128;4.220;2023-05-16T02:10:38;16.85;;;2.90;;
41323;SDS011;27073;51.128;4.220;2023-05-16T02:13:05;16.40;;;3.05;;
41323;SDS011;27073;51.128;4.220;2023-05-16T02:15:31;16.05;;;2.83;;
41323;SDS011;27073;51.128;4.220;2023-05-16T02:17:57;11.52;;;2.33;;
41323;SDS011;27073;51.128;4.220;2023-05-16T02:20:23;15.88;;;2.85;;
41323;SDS011;27073;51.128;4.220;2023-05-16T02:22:49;10.65;;;2.88;;
41323;SDS011;27073;51.128;4.220;2023-05-16T02:25:15;13.00;;;2.58;;
41323;SDS011;27073;51.128;4.220;2023-05-16T02:27:41;17.05;;;2.60;;
41323;SDS011;27073;51.128;4.220;2023-05-16T02:30:08;17.15;;;3.15;;
41323;SDS011;27073;51.128;4.220;2023-05-16T02:32:36;16.58;;;3.38;;
41323;SDS011;27073;51.128;4.220;2023-05-16T02:35:03;11.88;;;2.72;;
41323;SDS011;27073;51.128;4.220;2023-05-16T02:37:29;16.98;;;3.83;;
41323;SDS011;27073;51.128;4.220;2023-05-16T02:39:55;14.35;;;2.63;;
41323;SDS011;27073;51.128;4.220;2023-05-16T02:42:21;14.98;;;2.67;;
41323;SDS011;27073;51.128;4.220;2023-05-16T02:44:46;15.30;;;3.28;;
41323;SDS011;27073;51.128;4.220;2023-05-16T02:47:12;12.38;;;2.55;;
41323;SDS011;27073;51.128;4.220;2023-05-16T02:49:38;13.57;;;3.15;;
41323;SDS011;27073;51.128;4.220;2023-05-16T02:52:05;14.70;;;3.50;;
41323;SDS011;27073;51.128;4.220;2023-05-16T02:54:31;20.15;;;4.03;;
41323;SDS011;27073;51.128;4.220;2023-05-16T02:56:58;18.75;;;3.80;;
41323;SDS011;27073;51.128;4.220;2023-05-16T02:59:23;14.40;;;3.78;;
41323;SDS011;27073;51.128;4.220;2023-05-16T03:01:49;17.10;;;3.03;;
41323;SDS011;27073;51.128;4.220;2023-05-16T03:04:15;16.88;;;4.32;;
41323;SDS011;27073;51.128;4.220;2023-05-16T03:06:41;23.92;;;4.05;;
41323;SDS011;27073;51.128;4.220;2023-05-16T03:09:06;21.45;;;4.65;;
41323;SDS011;27073;51.128;4.220;2023-05-16T03:11:32;23.40;;;4.60;;
41323;SDS011;27073;51.128;4.220;2023-05-16T03:13:58;17.77;;;3.67;;
41323;SDS011;27073;51.128;4.220;2023-05-16T03:16:24;22.17;;;3.50;;
41323;SDS011;27073;51.128;4.220;2023-05-16T03:18:50;24.38;;;4.10;;
41323;SDS011;27073;51.128;4.220;2023-05-16T03:21:16;26.40;;;4.30;;
41323;SDS011;27073;51.128;4.220;2023-05-16T03:23:43;18.98;;;4.30;;
41323;SDS011;27073;51.128;4.220;2023-05-16T03:26:09;20.67;;;3.67;;
41323;SDS011;27073;51.128;4.220;2023-05-16T03:28:35;16.92;;;3.60;;
41323;SDS011;27073;51.128;4.220;2023-05-16T03:31:01;22.50;;;4.50;;
41323;SDS011;27073;51.128;4.220;2023-05-16T03:33:27;19.25;;;3.90;;
41323;SDS011;27073;51.128;4.220;2023-05-16T03:35:53;23.45;;;3.83;;
41323;SDS011;27073;51.128;4.220;2023-05-16T03:38:19;22.42;;;4.68;;
41323;SDS011;27073;51.128;4.220;2023-05-16T03:40:46;21.88;;;3.03;;
41323;SDS011;27073;51.128;4.220;2023-05-16T03:43:12;13.95;;;3.40;;
41323;SDS011;27073;51.128;4.220;2023-05-16T03:45:38;16.45;;;3.17;;
41323;SDS011;27073;51.128;4.220;2023-05-16T03:48:04;12.02;;;3.50;;
41323;SDS011;27073;51.128;4.220;2023-05-16T03:50:30;19.02;;;3.95;;
41323;SDS011;27073;51.128;4.220;2023-05-16T03:52:56;15.68;;;3.17;;
41323;SDS011;27073;51.128;4.220;2023-05-16T03:55:21;15.60;;;3.90;;
41323;SDS011;27073;51.128;4.220;2023-05-16T03:57:47;21.60;;;3.20;;
41323;SDS011;27073;51.128;4.220;2023-05-16T04:00:14;22.75;;;3.65;;
41323;SDS011;27073;51.128;4.220;2023-05-16T04:02:40;15.38;;;3.47;;
41323;SDS011;27073;51.128;4.220;2023-05-16T04:05:07;15.82;;;3.55;;
41323;SDS011;27073;51.128;4.220;2023-05-16T04:07:34;17.27;;;3.58;;
41323;SDS011;27073;51.128;4.220;2023-05-16T04:10:00;15.32;;;2.92;;
41323;SDS011;27073;51.128;4.220;2023-05-16T04:12:26;19.48;;;3.38;;
41323;SDS011;27073;51.128;4.220;2023-05-16T04:14:52;15.98;;;3.25;;
41323;SDS011;27073;51.128;4.220;2023-05-16T04:17:18;11.77;;;2.55;;
41323;SDS011;27073;51.128;4.220;2023-05-16T04:19:43;16.90;;;2.90;;
41323;SDS011;27073;51.128;4.220;2023-05-16T04:22:09;16.50;;;2.97;;
41323;SDS011;27073;51.128;4.220;2023-05-16T04:24:35;12.65;;;2.92;;
41323;SDS011;27073;51.128;4.220;2023-05-16T04:27:01;17.58;;;3.03;;
41323;SDS011;27073;51.128;4.220;2023-05-16T04:29:28;17.05;;;3.45;;
41323;SDS011;27073;51.128;4.220;2023-05-16T04:31:55;14.55;;;3.17;;
41323;SDS011;27073;51.128;4.220;2023-05-16T04:34:20;20.92;;;2.80;;
41323;SDS011;27073;51.128;4.220;2023-05-16T04:36:47;19.58;;;2.92;;
41323;SDS011;27073;51.128;4.220;2023-05-16T04:39:13;19.95;;;3.35;;
41323;SDS011;27073;51.128;4.220;2023-05-16T04:41:39;13.25;;;3.15;;
41323;SDS011;27073;51.128;4.220;2023-05-16T04:44:04;16.77;;;3.13;;
41323;SDS011;27073;51.128;4.220;2023-05-16T04:46:31;22.30;;;2.63;;
41323;SDS011;27073;51.128;4.220;2023-05-16T04:48:56;11.68;;;2.15;;
41323;SDS011;27073;51.128;4.220;2023-05-16T04:51:22;13.27;;;2.92;;
41323;SDS011;27073;51.128;4.220;2023-05-16T04:53:48;15.23;;;2.50;;
41323;SDS011;27073;51.128;4.220;2023-05-16T04:56:14;14.07;;;2.75;;
41323;SDS011;27073;51.128;4.220;2023-05-16T04:58:39;19.67;;;3.30;;
41323;SDS011;27073;51.128;4.220;2023-05-16T05:01:05;16.20;;;2.90;;
41323;SDS011;27073;51.128;4.220;2023-05-16T05:03:31;13.15;;;3.22;;
41323;SDS011;27073;51.128;4.220;2023-05-16T05:05:57;17.45;;;3.13;;
41323;SDS011;27073;51.128;4.220;2023-05-16T05:08:23;18.70;;;3.90;;
41323;SDS011;27073;51.128;4.220;2023-05-16T05:10:48;12.80;;;2.35;;
41323;SDS011;27073;51.128;4.220;2023-05-16T05:13:14;12.02;;;2.78;;
41323;SDS011;27073;51.128;4.220;2023-05-16T05:15:40;20.08;;;3.58;;
41323;SDS011;27073;51.128;4.220;2023-05-16T05:18:08;14.65;;;3.22;;
41323;SDS011;27073;51.128;4.220;2023-05-16T05:20:34;14.50;;;2.80;;
41323;SDS011;27073;51.128;4.220;2023-05-16T05:23:00;12.15;;;2.55;;
41323;SDS011;27073;51.128;4.220;2023-05-16T05:25:25;14.02;;;2.72;;
41323;SDS011;27073;51.128;4.220;2023-05-16T05:27:51;13.27;;;2.83;;
41323;SDS011;27073;51.128;4.220;2023-05-16T05:30:17;10.50;;;2.50;;
41323;SDS011;27073;51.128;4.220;2023-05-16T05:32:43;13.48;;;3.00;;
41323;SDS011;27073;51.128;4.220;2023-05-16T05:35:08;11.70;;;2.22;;
41323;SDS011;27073;51.128;4.220;2023-05-16T05:37:34;16.20;;;3.00;;
41323;SDS011;27073;51.128;4.220;2023-05-16T05:40:00;15.38;;;3.08;;
41323;SDS011;27073;51.128;4.220;2023-05-16T05:42:26;13.13;;;2.95;;
41323;SDS011;27073;51.128;4.220;2023-05-16T05:44:52;19.77;;;3.78;;
41323;SDS011;27073;51.128;4.220;2023-05-16T05:47:17;15.95;;;3.80;;
41323;SDS011;27073;51.128;4.220;2023-05-16T05:49:43;14.98;;;3.03;;
41323;SDS011;27073;51.128;4.220;2023-05-16T05:52:09;15.98;;;3.75;;
41323;SDS011;27073;51.128;4.220;2023-05-16T05:54:35;11.27;;;2.40;;
41323;SDS011;27073;51.128;4.220;2023-05-16T05:57:03;19.45;;;3.00;;
41323;SDS011;27073;51.128;4.220;2023-05-16T05:59:29;15.43;;;2.88;;
41323;SDS011;27073;51.128;4.220;2023-05-16T06:01:55;11.52;;;3.60;;
41323;SDS011;27073;51.128;4.220;2023-05-16T06:04:21;17.60;;;2.95;;
41323;SDS011;27073;51.128;4.220;2023-05-16T06:06:46;13.98;;;2.50;;
41323;SDS011;27073;51.128;4.220;2023-05-16T06:09:12;17.80;;;2.30;;
41323;SDS011;27073;51.128;4.220;2023-05-16T06:11:39;18.40;;;3.03;;
41323;SDS011;27073;51.128;4.220;2023-05-16T06:14:05;14.73;;;2.20;;
41323;SDS011;27073;51.128;4.220;2023-05-16T06:16:31;9.45;;;2.15;;
41323;SDS011;27073;51.128;4.220;2023-05-16T06:18:57;11.10;;;1.95;;
41323;SDS011;27073;51.128;4.220;2023-05-16T06:21:24;14.98;;;2.58;;
41323;SDS011;27073;51.128;4.220;2023-05-16T06:23:49;8.38;;;1.88;;
41323;SDS011;27073;51.128;4.220;2023-05-16T06:26:15;13.07;;;2.22;;
41323;SDS011;27073;51.128;4.220;2023-05-16T06:28:41;11.07;;;1.73;;
41323;SDS011;27073;51.128;4.220;2023-05-16T06:31:06;15.35;;;2.55;;
41323;SDS011;27073;51.128;4.220;2023-05-16T06:33:33;10.32;;;1.80;;
41323;SDS011;27073;51.128;4.220;2023-05-16T06:35:59;14.43;;;2.10;;
41323;SDS011;27073;51.128;4.220;2023-05-16T06:38:25;11.95;;;2.35;;
41323;SDS011;27073;51.128;4.220;2023-05-16T06:40:51;10.98;;;1.90;;
41323;SDS011;27073;51.128;4.220;2023-05-16T06:43:16;12.05;;;2.15;;
41323;SDS011;27073;51.128;4.220;2023-05-16T06:45:45;12.93;;;2.35;;
41323;SDS011;27073;51.128;4.220;2023-05-16T06:48:12;9.50;;;2.10;;
41323;SDS011;27073;51.128;4.220;2023-05-16T06:50:39;9.52;;;2.25;;
41323;SDS011;27073;51.128;4.220;2023-05-16T06:53:05;12.48;;;1.60;;
41323;SDS011;27073;51.128;4.220;2023-05-16T06:55:32;12.95;;;1.80;;
41323;SDS011;27073;51.128;4.220;2023-05-16T06:57:58;9.85;;;1.70;;
41323;SDS011;27073;51.128;4.220;2023-05-16T07:00:24;13.52;;;1.98;;
41323;SDS011;27073;51.128;4.220;2023-05-16T07:02:50;8.63;;;1.48;;
41323;SDS011;27073;51.128;4.220;2023-05-16T07:05:15;9.25;;;1.67;;
41323;SDS011;27073;51.128;4.220;2023-05-16T07:07:41;9.68;;;1.15;;
41323;SDS011;27073;51.128;4.220;2023-05-16T07:10:07;8.32;;;2.08;;
41323;SDS011;27073;51.128;4.220;2023-05-16T07:12:34;11.35;;;1.55;;
41323;SDS011;27073;51.128;4.220;2023-05-16T07:15:02;11.27;;;1.80;;
41323;SDS011;27073;51.128;4.220;2023-05-16T07:17:28;10.98;;;1.70;;
41323;SDS011;27073;51.128;4.220;2023-05-16T07:19:54;11.18;;;1.60;;
41323;SDS011;27073;51.128;4.220;2023-05-16T07:22:20;13.10;;;1.83;;
41323;SDS011;27073;51.128;4.220;2023-05-16T07:24:45;11.93;;;1.98;;
41323;SDS011;27073;51.128;4.220;2023-05-16T07:27:11;9.57;;;1.90;;
41323;SDS011;27073;51.128;4.220;2023-05-16T07:29:38;8.77;;;1.48;;
41323;SDS011;27073;51.128;4.220;2023-05-16T07:32:04;10.38;;;1.65;;
41323;SDS011;27073;51.128;4.220;2023-05-16T07:34:30;7.53;;;1.60;;
41323;SDS011;27073;51.128;4.220;2023-05-16T07:36:56;9.48;;;1.20;;
41323;SDS011;27073;51.128;4.220;2023-05-16T07:39:22;4.45;;;0.93;;
41323;SDS011;27073;51.128;4.220;2023-05-16T07:41:47;7.15;;;1.13;;
41323;SDS011;27073;51.128;4.220;2023-05-16T07:44:13;8.70;;;1.15;;
41323;SDS011;27073;51.128;4.220;2023-05-16T07:46:39;7.70;;;1.58;;
41323;SDS011;27073;51.128;4.220;2023-05-16T07:49:05;8.20;;;1.77;;
41323;SDS011;27073;51.128;4.220;2023-05-16T07:51:30;10.30;;;1.73;;
41323;SDS011;27073;51.128;4.220;2023-05-16T07:53:56;8.35;;;1.83;;
41323;SDS011;27073;51.128;4.220;2023-05-16T07:56:22;6.47;;;1.40;;
41323;SDS011;27073;51.128;4.220;2023-05-16T07:58:48;7.63;;;1.58;;
41323;SDS011;27073;51.128;4.220;2023-05-16T08:01:14;7.00;;;1.52;;
41323;SDS011;27073;51.128;4.220;2023-05-16T08:03:41;6.40;;;1.05;;
41323;SDS011;27073;51.128;4.220;2023-05-16T08:06:06;8.48;;;2.10;;
41323;SDS011;27073;51.128;4.220;2023-05-16T08:08:32;9.82;;;1.23;;
41323;SDS011;27073;51.128;4.220;2023-05-16T08:10:58;7.28;;;1.13;;
41323;SDS011;27073;51.128;4.220;2023-05-16T08:13:24;6.75;;;1.35;;
41323;SDS011;27073;51.128;4.220;2023-05-16T08:15:49;8.65;;;1.30;;
41323;SDS011;27073;51.128;4.220;2023-05-16T08:18:15;9.30;;;1.20;;
41323;SDS011;27073;51.128;4.220;2023-05-16T08:20:41;9.52;;;1.23;;
41323;SDS011;27073;51.128;4.220;2023-05-16T08:23:07;6.63;;;1.50;;
41323;SDS011;27073;51.128;4.220;2023-05-16T08:25:33;5.95;;;0.93;;
41323;SDS011;27073;51.128;4.220;2023-05-16T08:28:00;8.30;;;1.10;;
41323;SDS011;27073;51.128;4.220;2023-05-16T08:30:28;9.43;;;1.55;;
41323;SDS011;27073;51.128;4.220;2023-05-16T08:32:54;7.57;;;1.10;;
41323;SDS011;27073;51.128;4.220;2023-05-16T08:35:20;5.60;;;0.82;;
41323;SDS011;27073;51.128;4.220;2023-05-16T08:37:45;4.38;;;1.25;;
41323;SDS011;27073;51.128;4.220;2023-05-16T08:40:11;9.82;;;1.10;;
41323;SDS011;27073;51.128;4.220;2023-05-16T08:42:38;7.30;;;0.85;;
41323;SDS011;27073;51.128;4.220;2023-05-16T08:45:05;4.47;;;1.05;;
41323;SDS011;27073;51.128;4.220;2023-05-16T08:47:32;10.30;;;1.58;;
41323;SDS011;27073;51.128;4.220;2023-05-16T08:50:01;6.82;;;1.02;;
41323;SDS011;27073;51.128;4.220;2023-05-16T08:52:28;4.85;;;1.20;;
41323;SDS011;27073;51.128;4.220;2023-05-16T08:55:01;8.90;;;1.85;;
41323;SDS011;27073;51.128;4.220;2023-05-16T08:57:32;7.07;;;1.10;;
41323;SDS011;27073;51.128;4.220;2023-05-16T08:59:58;7.07;;;1.20;;
41323;SDS011;27073;51.128;4.220;2023-05-16T09:02:25;4.10;;;0.90;;
41323;SDS011;27073;51.128;4.220;2023-05-16T09:04:52;9.45;;;1.30;;
41323;SDS011;27073;51.128;4.220;2023-05-16T09:07:18;6.80;;;1.23;;
41323;SDS011;27073;51.128;4.220;2023-05-16T09:09:44;7.85;;;1.42;;
41323;SDS011;27073;51.128;4.220;2023-05-16T09:12:10;4.82;;;0.85;;
41323;SDS011;27073;51.128;4.220;2023-05-16T09:14:36;7.30;;;1.00;;
41323;SDS011;27073;51.128;4.220;2023-05-16T09:17:02;5.75;;;0.80;;
41323;SDS011;27073;51.128;4.220;2023-05-16T09:19:39;8.48;;;1.00;;
41323;SDS011;27073;51.128;4.220;2023-05-16T09:22:11;5.53;;;1.08;;
41323;SDS011;27073;51.128;4.220;2023-05-16T09:24:38;5.10;;;1.05;;
41323;SDS011;27073;51.128;4.220;2023-05-16T09:27:08;5.10;;;0.82;;
41323;SDS011;27073;51.128;4.220;2023-05-16T09:29:34;9.73;;;1.30;;
41323;SDS011;27073;51.128;4.220;2023-05-16T09:32:04;10.48;;;0.88;;
41323;SDS011;27073;51.128;4.220;2023-05-16T09:34:37;7.10;;;0.90;;
41323;SDS011;27073;51.128;4.220;2023-05-16T09:37:04;4.47;;;1.25;;
41323;SDS011;27073;51.128;4.220;2023-05-16T09:39:30;9.30;;;1.00;;
41323;SDS011;27073;51.128;4.220;2023-05-16T09:41:57;4.20;;;0.80;;
41323;SDS011;27073;51.128;4.220;2023-05-16T09:44:23;6.35;;;0.75;;
41323;SDS011;27073;51.128;4.220;2023-05-16T09:46:49;8.02;;;0.70;;
41323;SDS011;27073;51.128;4.220;2023-05-16T09:49:17;8.57;;;1.60;;
41323;SDS011;27073;51.128;4.220;2023-05-16T09:51:43;6.20;;;1.23;;
41323;SDS011;27073;51.128;4.220;2023-05-16T09:54:10;6.53;;;1.27;;
41323;SDS011;27073;51.128;4.220;2023-05-16T09:56:48;9.02;;;1.30;;
41323;SDS011;27073;51.128;4.220;2023-05-16T09:59:15;6.60;;;1.08;;
41323;SDS011;27073;51.128;4.220;2023-05-16T10:01:41;8.77;;;1.50;;
41323;SDS011;27073;51.128;4.220;2023-05-16T10:04:07;16.58;;;2.08;;
41323;SDS011;27073;51.128;4.220;2023-05-16T10:06:38;6.53;;;1.13;;
41323;SDS011;27073;51.128;4.220;2023-05-16T10:09:09;5.75;;;1.10;;
41323;SDS011;27073;51.128;4.220;2023-05-16T10:11:40;5.75;;;1.13;;
41323;SDS011;27073;51.128;4.220;2023-05-16T10:14:08;4.10;;;0.93;;
41323;SDS011;27073;51.128;4.220;2023-05-16T10:16:35;7.60;;;1.30;;
41323;SDS011;27073;51.128;4.220;2023-05-16T10:19:02;6.40;;;0.98;;
41323;SDS011;27073;51.128;4.220;2023-05-16T10:21:30;3.63;;;1.23;;
41323;SDS011;27073;51.128;4.220;2023-05-16T10:23:57;4.65;;;0.82;;
41323;SDS011;27073;51.128;4.220;2023-05-16T10:26:26;6.43;;;1.00;;
41323;SDS011;27073;51.128;4.220;2023-05-16T10:28:53;8.88;;;1.20;;
41323;SDS011;27073;51.128;4.220;2023-05-16T10:31:19;8.18;;;1.27;;
41323;SDS011;27073;51.128;4.220;2023-05-16T10:33:46;8.40;;;1.20;;
41323;SDS011;27073;51.128;4.220;2023-05-16T10:36:12;6.03;;;1.50;;
41323;SDS011;27073;51.128;4.220;2023-05-16T10:38:39;5.25;;;1.20;;
41323;SDS011;27073;51.128;4.220;2023-05-16T10:41:06;5.95;;;1.00;;
41323;SDS011;27073;51.128;4.220;2023-05-16T10:43:33;4.13;;;1.00;;
41323;SDS011;27073;51.128;4.220;2023-05-16T10:46:02;5.40;;;0.93;;
41323;SDS011;27073;51.128;4.220;2023-05-16T10:48:30;8.23;;;1.10;;
41323;SDS011;27073;51.128;4.220;2023-05-16T10:50:57;5.32;;;1.20;;
41323;SDS011;27073;51.128;4.220;2023-05-16T10:53:33;8.75;;;1.20;;
41323;SDS011;27073;51.128;4.220;2023-05-16T11:04:08;3.17;;;0.90;;
41323;SDS011;27073;51.128;4.220;2023-05-16T11:09:07;5.45;;;1.02;;
41323;SDS011;27073;51.128;4.220;2023-05-16T11:14:21;6.20;;;1.65;;
41323;SDS011;27073;51.128;4.220;2023-05-16T11:17:11;5.25;;;0.75;;
41323;SDS011;27073;51.128;4.220;2023-05-16T11:19:56;2.53;;;0.50;;
41323;SDS011;27073;51.128;4.220;2023-05-16T11:22:26;4.95;;;0.93;;
41323;SDS011;27073;51.128;4.220;2023-05-16T11:25:00;7.68;;;1.23;;
41323;SDS011;27073;51.128;4.220;2023-05-16T11:27:29;5.18;;;0.75;;
41323;SDS011;27073;51.128;4.220;2023-05-16T11:32:38;3.05;;;0.82;;
41323;SDS011;27073;51.128;4.220;2023-05-16T11:35:05;5.60;;;1.50;;
41323;SDS011;27073;51.128;4.220;2023-05-16T11:37:33;6.38;;;0.90;;
41323;SDS011;27073;51.128;4.220;2023-05-16T11:40:03;6.95;;;0.88;;
41323;SDS011;27073;51.128;4.220;2023-05-16T11:42:33;6.30;;;0.95;;
41323;SDS011;27073;51.128;4.220;2023-05-16T11:45:10;5.50;;;1.23;;
41323;SDS011;27073;51.128;4.220;2023-05-16T11:47:41;7.47;;;2.03;;
41323;SDS011;27073;51.128;4.220;2023-05-16T11:50:12;8.68;;;2.13;;
41323;SDS011;27073;51.128;4.220;2023-05-16T11:52:42;6.25;;;1.42;;
41323;SDS011;27073;51.128;4.220;2023-05-16T11:55:12;11.00;;;3.22;;
41323;SDS011;27073;51.128;4.220;2023-05-16T11:57:40;4.72;;;1.30;;
41323;SDS011;27073;51.128;4.220;2023-05-16T12:00:18;8.18;;;1.40;;
41323;SDS011;27073;51.128;4.220;2023-05-16T12:02:46;5.85;;;1.63;;
41323;SDS011;27073;51.128;4.220;2023-05-16T12:05:16;5.47;;;1.40;;
41323;SDS011;27073;51.128;4.220;2023-05-16T12:07:45;15.13;;;6.53;;
41323;SDS011;27073;51.128;4.220;2023-05-16T12:10:12;5.22;;;1.95;;
41323;SDS011;27073;51.128;4.220;2023-05-16T12:12:41;7.35;;;1.08;;
41323;SDS011;27073;51.128;4.220;2023-05-16T12:15:08;6.53;;;2.17;;
41323;SDS011;27073;51.128;4.220;2023-05-16T12:17:35;9.02;;;2.00;;
41323;SDS011;27073;51.128;4.220;2023-05-16T12:20:02;7.20;;;2.40;;
41323;SDS011;27073;51.128;4.220;2023-05-16T12:22:37;6.55;;;1.25;;
41323;SDS011;27073;51.128;4.220;2023-05-16T12:28:08;7.78;;;1.88;;
41323;SDS011;27073;51.128;4.220;2023-05-16T12:30:38;6.88;;;1.83;;
41323;SDS011;27073;51.128;4.220;2023-05-16T12:35:39;6.20;;;1.80;;
41323;SDS011;27073;51.128;4.220;2023-05-16T12:38:07;4.68;;;1.33;;
41323;SDS011;27073;51.128;4.220;2023-05-16T12:40:37;6.28;;;1.08;;
41323;SDS011;27073;51.128;4.220;2023-05-16T12:43:13;5.80;;;0.90;;
41323;SDS011;27073;51.128;4.220;2023-05-16T12:45:39;4.10;;;0.82;;
41323;SDS011;27073;51.128;4.220;2023-05-16T12:48:11;7.15;;;2.30;;
41323;SDS011;27073;51.128;4.220;2023-05-16T12:50:38;7.97;;;1.80;;
41323;SDS011;27073;51.128;4.220;2023-05-16T12:53:08;3.78;;;1.45;;
41323;SDS011;27073;51.128;4.220;2023-05-16T12:55:36;7.03;;;2.47;;
41323;SDS011;27073;51.128;4.220;2023-05-16T12:58:02;4.80;;;1.40;;
41323;SDS011;27073;51.128;4.220;2023-05-16T13:00:28;6.30;;;1.90;;
41323;SDS011;27073;51.128;4.220;2023-05-16T13:02:53;8.55;;;1.60;;
41323;SDS011;27073;51.128;4.220;2023-05-16T13:05:19;8.32;;;1.40;;
41323;SDS011;27073;51.128;4.220;2023-05-16T13:07:47;5.35;;;1.65;;
41323;SDS011;27073;51.128;4.220;2023-05-16T13:10:15;5.85;;;2.15;;
41323;SDS011;27073;51.128;4.220;2023-05-16T13:12:42;6.22;;;2.20;;
41323;SDS011;27073;51.128;4.220;2023-05-16T13:15:09;9.18;;;1.95;;
41323;SDS011;27073;51.128;4.220;2023-05-16T13:17:38;7.75;;;1.50;;
41323;SDS011;27073;51.128;4.220;2023-05-16T13:20:06;4.40;;;0.63;;
41323;SDS011;27073;51.128;4.220;2023-05-16T13:22:36;3.50;;;0.60;;
41323;SDS011;27073;51.128;4.220;2023-05-16T13:25:06;4.22;;;1.20;;
41323;SDS011;27073;51.128;4.220;2023-05-16T13:27:33;11.25;;;2.47;;
41323;SDS011;27073;51.128;4.220;2023-05-16T13:29:59;7.45;;;1.25;;
41323;SDS011;27073;51.128;4.220;2023-05-16T13:32:25;8.98;;;1.13;;
41323;SDS011;27073;51.128;4.220;2023-05-16T13:34:51;5.68;;;1.27;;
41323;SDS011;27073;51.128;4.220;2023-05-16T13:37:17;4.28;;;0.80;;
41323;SDS011;27073;51.128;4.220;2023-05-16T13:39:43;4.07;;;1.13;;
41323;SDS011;27073;51.128;4.220;2023-05-16T13:42:09;4.32;;;1.13;;
41323;SDS011;27073;51.128;4.220;2023-05-16T13:44:34;6.78;;;1.52;;
41323;SDS011;27073;51.128;4.220;2023-05-16T13:47:00;4.60;;;0.68;;
41323;SDS011;27073;51.128;4.220;2023-05-16T13:49:27;5.15;;;0.88;;
41323;SDS011;27073;51.128;4.220;2023-05-16T13:51:52;5.18;;;0.75;;
41323;SDS011;27073;51.128;4.220;2023-05-16T13:54:18;4.65;;;1.08;;
41323;SDS011;27073;51.128;4.220;2023-05-16T13:56:46;3.67;;;0.70;;
41323;SDS011;27073;51.128;4.220;2023-05-16T13:59:12;4.32;;;0.80;;
41323;SDS011;27073;51.128;4.220;2023-05-16T14:01:37;4.07;;;0.88;;
41323;SDS011;27073;51.128;4.220;2023-05-16T14:04:03;5.22;;;1.27;;
41323;SDS011;27073;51.128;4.220;2023-05-16T14:06:29;6.15;;;1.70;;
41323;SDS011;27073;51.128;4.220;2023-05-16T14:08:55;5.53;;;1.20;;
41323;SDS011;27073;51.128;4.220;2023-05-16T14:11:21;4.97;;;0.70;;
41323;SDS011;27073;51.128;4.220;2023-05-16T14:13:52;5.45;;;0.90;;
41323;SDS011;27073;51.128;4.220;2023-05-16T14:16:18;8.55;;;2.33;;
41323;SDS011;27073;51.128;4.220;2023-05-16T14:18:44;7.95;;;2.45;;
41323;SDS011;27073;51.128;4.220;2023-05-16T14:21:09;3.58;;;0.70;;
41323;SDS011;27073;51.128;4.220;2023-05-16T14:23:35;4.82;;;1.00;;
41323;SDS011;27073;51.128;4.220;2023-05-16T14:26:01;5.13;;;0.93;;
41323;SDS011;27073;51.128;4.220;2023-05-16T14:28:27;4.60;;;0.85;;
41323;SDS011;27073;51.128;4.220;2023-05-16T14:30:53;3.55;;;1.15;;
41323;SDS011;27073;51.128;4.220;2023-05-16T14:33:18;4.75;;;1.08;;
41323;SDS011;27073;51.128;4.220;2023-05-16T14:35:44;5.88;;;1.33;;
41323;SDS011;27073;51.128;4.220;2023-05-16T14:38:10;4.50;;;1.13;;
41323;SDS011;27073;51.128;4.220;2023-05-16T14:40:35;5.53;;;1.10;;
41323;SDS011;27073;51.128;4.220;2023-05-16T14:43:01;4.03;;;0.70;;
41323;SDS011;27073;51.128;4.220;2023-05-16T14:45:28;2.63;;;0.60;;
41323;SDS011;27073;51.128;4.220;2023-05-16T14:47:54;5.72;;;1.73;;
41323;SDS011;27073;51.128;4.220;2023-05-16T14:50:20;5.05;;;1.27;;
41323;SDS011;27073;51.128;4.220;2023-05-16T14:52:46;7.72;;;1.80;;
41323;SDS011;27073;51.128;4.220;2023-05-16T14:55:11;7.05;;;1.98;;
41323;SDS011;27073;51.128;4.220;2023-05-16T14:57:37;6.50;;;1.38;;
41323;SDS011;27073;51.128;4.220;2023-05-16T15:00:03;5.22;;;1.60;;
41323;SDS011;27073;51.128;4.220;2023-05-16T15:02:29;6.40;;;1.10;;
41323;SDS011;27073;51.128;4.220;2023-05-16T15:04:55;5.70;;;0.90;;
41323;SDS011;27073;51.128;4.220;2023-05-16T15:07:21;4.72;;;0.80;;
41323;SDS011;27073;51.128;4.220;2023-05-16T15:09:47;6.35;;;1.40;;
41323;SDS011;27073;51.128;4.220;2023-05-16T15:12:12;9.00;;;1.75;;
41323;SDS011;27073;51.128;4.220;2023-05-16T15:14:40;5.47;;;1.38;;